Weather reports worldwide

Advertisment
Formigueres, France (7737): temperature & dewpoint: 07.07.2020 05:00:00 - 13.07.2020 05:00:00 (CEST)Formigueres, France (7737): wind speed & gusts: 07.07.2020 05:00:00 - 13.07.2020 05:00:00 (CEST)Formigueres, France (7737): wind direction: 07.07.2020 05:00:00 - 13.07.2020 05:00:00 (CEST)Formigueres, France (7737): precipitation: 07.07.2020 05:00:00 - 13.07.2020 05:00:00 (CEST)
Date & Time tt [°C] td [°C] ff [km/h] ff [kn] fx [km/h] fx [kn] dd rr [mm]
13.07.2020 05:00:00 9,8 9,7 6 3 10 6 WSW 0,2
13.07.2020 04:00:00 10,6 10,3 5 3 14 8 SSW 0,0
13.07.2020 03:00:00 10,6 10,1 4 2 18 10 WSW 0,0
13.07.2020 02:00:00 10,8 10,5 4 2 11 6 SW 0,0
13.07.2020 01:00:00 11,1 10,5 5 3 18 10 W 0,0
13.07.2020 00:00:00 11,5 10,9 10 6 16 9 W 0,0
12.07.2020 23:00:00 12,3 11,7 10 5 16 9 W 0,0
12.07.2020 22:00:00 13,1 11,8 4 2 16 9 N 0,0
12.07.2020 21:00:00 14,7 12,4 6 3 17 9 SSE 0,0
12.07.2020 20:00:00 18,0 14,3 5 3 14 7 SSE 0,0
12.07.2020 19:00:00 16,9 14,7 6 3 14 8 SSW 0,0
12.07.2020 18:00:00 14,7 13,6 9 5 18 10 WSW 0,0
12.07.2020 17:00:00 14,2 13,6 7 4 32 17 WSW 0,0
12.07.2020 16:00:00 17,4 13,9 4 2 18 10 E 0,0
12.07.2020 15:00:00 16,7 14,7 6 3 33 18 SSW 0,0
12.07.2020 14:00:00 13,6 12,0 18 10 45 24 NNW 0,0
12.07.2020 13:00:00 17,1 12,4 29 16 46 25 N 0,2
12.07.2020 12:00:00 21,2 14,8 19 10 33 18 NNE 0,0
12.07.2020 11:00:00 22,6 15,9 13 7 22 12 NNE 0,0
12.07.2020 10:00:00 21,1 16,1 5 3 10 5 NE 0,0
12.07.2020 09:00:00 18,3 14,0 2 1 8 5 NE 0,0
12.07.2020 08:00:00 14,0 11,5 4 2 20 11 NNW 0,0
12.07.2020 07:00:00 10,4 9,3 15 8 25 13 WSW 0,0
12.07.2020 06:00:00 10,0 9,2 14 8 23 12 W 0,0
12.07.2020 05:00:00 9,7 9,2 11 6 21 12 WSW 0,0
12.07.2020 04:00:00 8,6 8,5 5 3 14 8 WSW 0,0
12.07.2020 03:00:00 8,4 8,0 5 3 15 8 WSW 0,0
12.07.2020 02:00:00 10,1 9,9 4 2 8 5 WSW 0,0
12.07.2020 01:00:00 10,8 10,6 5 3 9 5 SSW 0,0
12.07.2020 00:00:00 11,8 11,6 2 1 9 5 ESE 0,0
11.07.2020 23:00:00 12,1 11,9 2 1 9 5 NNW 0,0
11.07.2020 22:00:00 12,2 11,9 6 4 19 10 NNE 0,0
11.07.2020 21:00:00 13,6 12,3 9 5 24 13 ENE 0,0
11.07.2020 20:00:00 17,3 13,8 14 8 39 21 N 0,0
11.07.2020 19:00:00 17,9 13,8 21 11 37 20 NNE 0,0
11.07.2020 18:00:00 17,4 14,3 19 10 41 22 NNE 0,0
11.07.2020 17:00:00 18,1 14,8 22 12 39 21 NNE 0,0
11.07.2020 16:00:00 18,1 14,6 16 9 30 16 NNE 0,0
11.07.2020 15:00:00 15,5 14,2 15 8 35 19 NNE 0,0
11.07.2020 14:00:00 17,2 14,7 18 10 34 18 N 0,0
11.07.2020 13:00:00 17,6 14,9 11 6 23 12 NNE 0,0
11.07.2020 12:00:00 16,5 14,0 6 4 15 8 NNE 0,0
11.07.2020 11:00:00 14,1 12,5 4 2 16 9 E 0,0
11.07.2020 10:00:00 12,8 12,3 9 5 17 9 NNE 0,0
11.07.2020 09:00:00 12,2 11,7 5 3 12 7 N 0,0
11.07.2020 08:00:00 11,0 10,5 6 4 14 8 W 0,0
11.07.2020 07:00:00 10,3 10,0 9 5 14 8 W 0,2
11.07.2020 06:00:00 10,5 10,2 6 3 14 8 WSW 0,0
11.07.2020 05:00:00 11,0 10,7 8 4 16 9 W 0,0
11.07.2020 04:00:00 11,2 10,9 7 4 11 6 WSW 0,0
11.07.2020 03:00:00 11,2 11,0 6 3 12 6 WSW 0,0
11.07.2020 02:00:00 11,2 11,0 8 4 15 8 W 0,0
11.07.2020 01:00:00 11,1 11,1 9 5 18 10 W 0,0
11.07.2020 00:00:00 10,7 10,7 10 6 16 9 W 0,0
10.07.2020 23:00:00 10,6 10,4 4 2 18 10 NW 0,0
10.07.2020 22:00:00 11,3 11,3 9 5 18 10 WSW 0,2
10.07.2020 21:00:00 11,7 11,5 6 4 11 6 SSW 0,0
10.07.2020 20:00:00 11,9 11,7 5 3 16 8 SSW 0,0
10.07.2020 19:00:00 11,1 11,1 4 2 25 13 SW 0,2
10.07.2020 18:00:00 10,8 10,6 10 5 79 43 W 0,0
10.07.2020 17:00:00 15,2 14,9 17 9 36 19 NNE 0,0
10.07.2020 16:00:00 17,2 15,4 16 9 41 22 NNE 0,0
10.07.2020 15:00:00 21,2 17,0 23 13 44 24 NNE 0,0
10.07.2020 14:00:00 24,2 18,4 14 8 31 17 NNE 0,0
10.07.2020 13:00:00 23,2 17,4 16 8 28 15 NNE 0,0
10.07.2020 12:00:00 22,4 11,5 11 6 29 15 SSE 0,0
10.07.2020 11:00:00 21,1 11,7 11 6 30 16 S 0,2
10.07.2020 10:00:00 20,5 14,4 11 6 25 13 SSE 0,0
10.07.2020 09:00:00 16,2 14,0 2 1 7 4 S 0,0
10.07.2020 08:00:00 11,3 11,0 0 0 9 5 N 0,0
10.07.2020 07:00:00 11,0 10,4 5 3 15 8 W 0,2
10.07.2020 06:00:00 10,2 10,0 5 3 14 8 W 0,0
10.07.2020 05:00:00 10,9 10,1 10 5 24 13 W 0,0
10.07.2020 04:00:00 11,1 10,3 13 7 19 10 WSW 0,2
10.07.2020 03:00:00 10,8 10,2 9 5 17 9 WSW 0,0
10.07.2020 02:00:00 11,6 11,0 10 5 18 10 WSW 0,0
10.07.2020 01:00:00 11,7 10,6 11 6 22 12 WSW 0,2
10.07.2020 00:00:00 11,9 11,1 11 6 22 12 W 0,2
09.07.2020 23:00:00 12,6 11,7 15 8 22 12 WSW 0,2
09.07.2020 22:00:00 12,8 12,2 8 4 15 8 S 0,6
09.07.2020 21:00:00 13,6 12,7 2 1 20 11 WNW 0,6
09.07.2020 20:00:00 14,3 13,0 9 5 25 13 WSW 0,6
09.07.2020 19:00:00 14,7 13,6 18 10 37 20 WNW 0,6
09.07.2020 18:00:00 15,6 14,0 6 3 17 9 WNW 0,8
09.07.2020 17:00:00 14,2 12,4 6 4 46 25 S 1,0
09.07.2020 16:00:00 18,3 14,8 16 9 39 21 WSW 0,2
09.07.2020 15:00:00 22,4 14,8 7 4 27 15 NE 0,2
09.07.2020 14:00:00 22,2 12,4 18 10 29 16 N 0,0
09.07.2020 13:00:00 24,0 14,1 14 7 29 16 NNE 0,0
09.07.2020 12:00:00 25,1 13,6 17 9 29 16 NNE 0,0
09.07.2020 11:00:00 25,4 11,9 6 3 16 8 NE 0,0
09.07.2020 10:00:00 22,2 16,0 5 3 10 5 NNE 0,0
09.07.2020 09:00:00 19,0 14,7 3 2 9 5 W 0,0
09.07.2020 08:00:00 15,9 11,7 0 0 11 6 N 0,0
09.07.2020 07:00:00 11,8 8,8 10 5 21 11 WSW 0,0
09.07.2020 06:00:00 11,0 8,6 6 3 20 11 WSW 0,0
09.07.2020 05:00:00 12,4 9,0 10 5 21 11 WSW 0,0
09.07.2020 04:00:00 12,0 9,2 8 4 22 12 W 0,0
09.07.2020 03:00:00 12,1 9,3 13 7 21 12 WSW 0,0
09.07.2020 02:00:00 12,9 9,7 14 7 19 11 WSW 0,0
09.07.2020 01:00:00 12,6 10,0 7 4 14 8 W 0,0
09.07.2020 00:00:00 13,4 9,3 10 6 19 10 W 0,0
08.07.2020 23:00:00 14,0 9,4 11 6 20 11 WSW 0,0
08.07.2020 22:00:00 15,0 10,6 12 6 18 10 W 0,0
08.07.2020 21:00:00 17,3 11,1 5 3 26 14 WSW 0,0
08.07.2020 20:00:00 21,2 11,2 13 7 31 17 N 0,0
08.07.2020 19:00:00 23,0 12,3 20 11 32 17 NNE 0,0
08.07.2020 18:00:00 22,1 11,5 20 11 39 21 N 0,0
08.07.2020 17:00:00 23,9 12,8 22 12 40 22 NNE 0,0
08.07.2020 16:00:00 23,9 14,0 22 12 42 23 N 0,0
08.07.2020 15:00:00 23,8 13,9 26 14 44 24 N 0,0
08.07.2020 14:00:00 24,0 14,4 20 11 40 21 NNE 0,0
08.07.2020 13:00:00 23,6 14,3 13 7 32 17 NNE 0,0
08.07.2020 12:00:00 23,3 12,6 14 7 26 14 NNE 0,0
08.07.2020 11:00:00 22,3 12,3 11 6 21 11 S 0,0
08.07.2020 10:00:00 20,0 14,4 3 2 11 6 NNE 0,0
08.07.2020 09:00:00 17,4 11,0 2 1 8 4 NNW 0,0
08.07.2020 08:00:00 13,7 8,1 3 1 22 12 W 0,0
08.07.2020 07:00:00 7,8 4,7 15 8 23 13 WSW 0,0
08.07.2020 06:00:00 7,8 4,7 12 7 26 14 WSW 0,0
08.07.2020 05:00:00 8,0 5,1 16 9 24 13 WSW 0,0
08.07.2020 04:00:00 7,3 4,8 6 3 20 11 WSW 0,0
08.07.2020 03:00:00 7,8 5,8 10 6 18 10 WSW 0,0
08.07.2020 02:00:00 7,1 6,4 7 4 14 8 WSW 0,0
08.07.2020 01:00:00 7,1 5,9 6 3 14 8 WSW 0,0
08.07.2020 00:00:00 8,0 6,5 5 3 13 7 WSW 0,0
07.07.2020 23:00:00 9,7 8,0 6 3 10 5 W 0,0
07.07.2020 22:00:00 10,8 7,7 3 2 9 5 NW 0,0
07.07.2020 21:00:00 12,2 8,1 3 2 21 11 NNE 0,0
07.07.2020 20:00:00 17,7 10,3 11 6 32 17 NNE 0,0
07.07.2020 19:00:00 18,3 10,9 18 10 38 21 N 0,0
07.07.2020 18:00:00 19,1 11,6 23 12 42 23 NNE 0,0
07.07.2020 17:00:00 19,5 12,0 21 11 40 22 NNE 0,0
07.07.2020 16:00:00 19,9 12,2 26 14 43 23 NNE 0,0
07.07.2020 15:00:00 20,0 11,0 24 13 46 25 NNE 0,0
07.07.2020 14:00:00 19,4 11,7 26 14 48 26 NNE 0,0
07.07.2020 13:00:00 18,4 10,2 30 16 50 27 N 0,0
07.07.2020 12:00:00 17,4 10,0 27 15 49 26 NNE 0,0
07.07.2020 11:00:00 16,5 7,7 26 14 45 25 NNE 0,0
07.07.2020 10:00:00 15,7 5,9 23 13 37 20 N 0,0
07.07.2020 09:00:00 13,0 9,3 4 2 11 6 ENE 0,0
07.07.2020 08:00:00 9,0 8,4 2 1 16 8 ESE 0,0
07.07.2020 07:00:00 5,6 4,9 10 5 16 8 W 0,0
07.07.2020 06:00:00 6,9 6,8 6 4 16 8 SW 0,0
07.07.2020 05:00:00 8,7 8,1 11 6 32 17 NNW 0,0

tt = temperature
td = dewpoint
ff = wind speed
fx = gusts
dd = wind direction
rr = precipitation

Next stations